DW8790 Maspalomas ES current weather conditions

sailwx.info

Wind from 205 at 1 knots gusting 2

Air temperature 17.2° C
Dewpoint 8.9° C

Last reported at 2017-Jan-18 19:50 UTC.
Time now 2017-Jan-18 20:18 UTC

Location: N 27°46' W 015°34'.
View on Google Maps.

See reports from other nearby stations

  
Tides and Currents Weather Stations Pressure Air Temp Water Temp Dewpoint Dewpoint Depression Visibility Wind Speed Wind Dir Waves Ship Positions
date/time (UTC)wind fromknots sea level pressurealtimeterstation pressurevisibilityair tempwater tempwave heightnotes
2017-Jan-18 19:50 205 1 gusting 2 17.2
2017-Jan-18 19:45 175 1 gusting 5 17.2
2017-Jan-18 19:40 210 1 gusting 4 17.8
2017-Jan-18 19:35 216 2 gusting 4 17.8
2017-Jan-18 19:30 225 2 gusting 5 17.8
2017-Jan-18 19:25 218 2 gusting 5 17.8
2017-Jan-18 19:20 234 2 gusting 5 17.8
2017-Jan-18 19:15 211 1 gusting 4 17.8
2017-Jan-18 19:10 209 2 gusting 6 17.8
2017-Jan-18 19:05 191 2 gusting 6 17.8
2017-Jan-18 19:00 235 4 gusting 5 17.8
2017-Jan-18 18:55 220 2 gusting 6 17.8
2017-Jan-18 18:50 217 4 gusting 6 17.8
2017-Jan-18 18:45 214 2 gusting 5 17.8
2017-Jan-18 18:40 241 4 gusting 6 17.8
2017-Jan-18 18:35 233 2 gusting 6 17.8
2017-Jan-18 18:30 246 4 gusting 10 17.8
2017-Jan-18 18:25 240 2 gusting 6 17.8
2017-Jan-18 18:20 246 4 gusting 7 17.8
2017-Jan-18 18:10 219 4 gusting 8 18.3
2017-Jan-18 18:05 217 4 gusting 7 18.3
2017-Jan-18 18:00 232 5 gusting 6 18.3
2017-Jan-18 17:55 239 4 gusting 8 18.3
2017-Jan-18 17:50 233 4 gusting 10 18.3
2017-Jan-18 17:45 245 6 gusting 10 18.3
2017-Jan-18 17:40 221 2 gusting 6 18.3
2017-Jan-18 17:35 232 4 gusting 8 18.3
2017-Jan-18 17:30 249 5 gusting 10 18.3
2017-Jan-18 17:25 251 6 gusting 10 18.3
2017-Jan-18 17:20 223 6 gusting 11 18.3
2017-Jan-18 17:15 244 6 gusting 11 18.3
2017-Jan-18 17:10 257 6 gusting 10 18.3
2017-Jan-18 17:05 238 6 gusting 10 18.3
2017-Jan-18 17:00 234 6 gusting 10 18.3
2017-Jan-18 16:55 242 6 gusting 12 18.3
2017-Jan-18 16:50 254 7 gusting 11 18.3
2017-Jan-18 16:45 248 6 gusting 11 18.9
2017-Jan-18 16:35 213 6 gusting 11 19.4
2017-Jan-18 16:30 247 6 gusting 10 19.4
2017-Jan-18 16:25 224 5 gusting 10 19.4
2017-Jan-18 16:20 246 6 gusting 11 18.9
2017-Jan-18 16:15 202 6 gusting 11 18.9
2017-Jan-18 16:00 236 7 gusting 12 18.9
2017-Jan-18 15:55 242 7 gusting 12 18.9
2017-Jan-18 15:50 235 6 gusting 11 19.4
2017-Jan-18 15:45 250 7 gusting 12 18.9
2017-Jan-18 15:40 239 8 gusting 13 18.3
2017-Jan-18 15:35 237 9 gusting 14 18.3
2017-Jan-18 15:20 230 7 gusting 13 19.4
2017-Jan-18 15:15 244 8 gusting 13 18.9
2017-Jan-18 15:10 221 8 gusting 13 18.9
2017-Jan-18 15:05 244 9 gusting 14 19.4
2017-Jan-18 15:00 234 6 gusting 11 19.4
2017-Jan-18 14:55 235 7 gusting 12 18.9
2017-Jan-18 14:50 227 7 gusting 13 18.9
2017-Jan-18 14:45 234 6 gusting 12 18.9
2017-Jan-18 14:40 226 6 gusting 13 18.9
2017-Jan-18 14:35 251 7 gusting 13 18.3
2017-Jan-18 14:30 229 6 gusting 12 18.3
2017-Jan-18 14:25 224 6 gusting 11 18.3
2017-Jan-18 14:20 252 7 gusting 12 18.3
2017-Jan-18 14:15 241 6 gusting 13 18.3
2017-Jan-18 14:10 222 5 gusting 8 18.3
2017-Jan-18 14:05 229 6 gusting 11 18.3
2017-Jan-18 14:00 229 6 gusting 11 18.3
2017-Jan-18 13:55 235 7 gusting 11 18.3
2017-Jan-18 13:50 214 7 gusting 12 18.3
2017-Jan-18 13:45 236 6 gusting 8 18.3
2017-Jan-18 13:40 247 6 gusting 10 18.3
2017-Jan-18 13:35 242 6 gusting 11 18.3
2017-Jan-18 13:30 234 7 gusting 12 18.3
2017-Jan-18 13:25 246 7 gusting 11 18.3
2017-Jan-18 13:20 217 6 gusting 10 17.8
2017-Jan-18 13:15 249 6 gusting 11 17.8
2017-Jan-18 13:10 245 7 gusting 10 18.3
2017-Jan-18 13:05 248 4 gusting 10 18.3
2017-Jan-18 13:00 254 6 gusting 11 18.3
2017-Jan-18 12:55 225 5 gusting 10 18.3
2017-Jan-18 12:45 250 5 gusting 10 18.3
2017-Jan-18 12:40 251 6 gusting 10 18.3
2017-Jan-18 12:35 229 6 gusting 11 18.3
2017-Jan-18 12:30 242 6 gusting 10 18.3
2017-Jan-18 12:25 245 6 gusting 11 18.3
2017-Jan-18 12:20 248 6 gusting 8 18.3
2017-Jan-18 12:15 217 6 gusting 10 18.3
2017-Jan-18 12:10 224 5 gusting 8 18.3
2017-Jan-18 12:05 239 6 gusting 10 18.3
2017-Jan-18 12:00 233 5 gusting 10 18.9
2017-Jan-18 11:55 230 5 gusting 7 18.9
2017-Jan-18 11:50 227 5 gusting 7 18.3
2017-Jan-18 11:45 234 5 gusting 8 18.3
2017-Jan-18 11:35 231 4 gusting 6 17.8
2017-Jan-18 11:30 197 6 gusting 10 17.8
2017-Jan-18 11:25 147 4 gusting 7 18.3
2017-Jan-18 11:20 185 1 gusting 5 18.3
2017-Jan-18 11:15 202 18.3
2017-Jan-18 11:10 241 17.8
2017-Jan-18 11:05 216 2 gusting 6 17.8
2017-Jan-18 11:00 264 1 gusting 2 17.8
2017-Jan-18 10:55 292 2 gusting 4 18.3
2017-Jan-18 10:50 214 1 gusting 4 18.3
2017-Jan-18 10:40 296 1 gusting 4 17.8
2017-Jan-18 10:35 289 2 gusting 5 17.8
2017-Jan-18 10:30 256 2 gusting 6 17.8
2017-Jan-18 10:25 304 1 gusting 2 17.8
2017-Jan-18 10:20 284 0 gusting 4 17.8
2017-Jan-18 10:15 318 2 gusting 5 17.8
2017-Jan-18 10:00 009 0 gusting 2 17.2
2017-Jan-18 09:55 333 17.2
2017-Jan-18 09:50 327 0 gusting 2 16.7
2017-Jan-18 09:45 309 1 gusting 4 17.2
2017-Jan-18 09:40 322 0 gusting 2 16.7
2017-Jan-18 09:35 274 0 gusting 4 16.7
2017-Jan-18 09:30 350 0 gusting 4 16.1
2017-Jan-18 09:25 114 0 gusting 6 15.6
2017-Jan-18 09:20 015 0 gusting 4 15.6
2017-Jan-18 09:15 020 0 gusting 4 15.6
2017-Jan-18 09:10 303 1 gusting 4 15.6
2017-Jan-18 09:05 021 0 gusting 4 15.6
2017-Jan-18 09:00 031 1 gusting 4 15.0
2017-Jan-18 08:55 308 1 gusting 6 15.0
2017-Jan-18 08:50 355 1 gusting 5 14.4
2017-Jan-18 08:45 005 2 gusting 6 14.4
2017-Jan-18 08:40 283 0 gusting 4 13.9
2017-Jan-18 08:35 309 1 gusting 6 13.9
2017-Jan-18 08:30 350 0 gusting 4 13.9
2017-Jan-18 08:25 340 1 gusting 5 13.9
2017-Jan-18 08:20 346 13.9
2017-Jan-18 08:15 063 0 gusting 2 13.9
2017-Jan-18 08:10 201 0 gusting 4 13.9
2017-Jan-18 08:05 249 0 gusting 5 13.9
2017-Jan-18 08:00 059 0 gusting 5 13.9
2017-Jan-18 07:45 285 3 gusting 5 13.3
2017-Jan-18 07:40 299 2 gusting 5 13.3
2017-Jan-18 07:35 306 2 gusting 4 13.9
2017-Jan-18 07:30 297 2 gusting 4 13.9
2017-Jan-18 07:25 293 0 gusting 2 13.9
2017-Jan-18 07:20 352 0 gusting 2 13.9
2017-Jan-18 07:15 042 13.9
2017-Jan-18 07:10 033 1 gusting 4 13.9
2017-Jan-18 07:00 038 13.9
2017-Jan-18 06:55 021 0 gusting 2 13.3
2017-Jan-18 06:50 283 0 gusting 2 13.3
2017-Jan-18 06:45 303 1 gusting 4 13.3
2017-Jan-18 06:40 337 1 gusting 4 13.3
2017-Jan-18 06:35 340 2 gusting 5 13.3
2017-Jan-18 06:30 327 1 gusting 4 13.3
2017-Jan-18 06:25 321 13.3
2017-Jan-18 06:20 342 13.9
2017-Jan-18 06:15 014 13.9
2017-Jan-18 06:10 325 1 gusting 2 13.9
2017-Jan-18 06:05 291 1 gusting 2 13.9
2017-Jan-18 06:00 312 1 gusting 2 13.3
2017-Jan-18 05:55 332 13.9
2017-Jan-18 05:50 332 13.9
2017-Jan-18 05:45 332 13.9
2017-Jan-18 05:40 332 13.9
2017-Jan-18 05:35 055 13.9
2017-Jan-18 05:30 006 13.3
2017-Jan-18 05:25 345 0 gusting 2 13.9
2017-Jan-18 05:20 273 13.9
2017-Jan-18 05:15 333 0 gusting 2 13.9
2017-Jan-18 05:10 319 1 gusting 4 13.9
2017-Jan-18 05:05 340 13.9
2017-Jan-18 05:00 325 13.9
2017-Jan-18 04:55 336 14.4
2017-Jan-18 04:45 053 0 gusting 2 15.0
2017-Jan-18 04:40 042 2 gusting 6 15.0
2017-Jan-18 04:35 080 2 gusting 6 15.0
2017-Jan-18 04:30 075 1 gusting 2 15.0
2017-Jan-18 04:25 075 4 gusting 6 15.0
2017-Jan-18 04:20 085 2 gusting 6 15.0
2017-Jan-18 04:15 085 3 gusting 6 15.0
2017-Jan-18 04:10 084 2 gusting 6 15.0
2017-Jan-18 04:05 072 3 gusting 6 14.4
2017-Jan-18 04:00 071 2 gusting 6 14.4
2017-Jan-18 03:55 004 0 gusting 2 14.4
2017-Jan-18 03:50 030 2 gusting 4 14.4
2017-Jan-18 03:45 038 0 gusting 2 15.0
2017-Jan-18 03:40 321 0 gusting 5 15.0
2017-Jan-18 03:35 047 1 gusting 5 15.0
2017-Jan-18 03:30 088 3 gusting 6 15.0
2017-Jan-18 03:20 078 1 gusting 5 15.0
2017-Jan-18 03:15 078 3 gusting 7 15.0
2017-Jan-18 03:10 083 2 gusting 6 15.0
2017-Jan-18 03:05 079 4 gusting 7 15.0
2017-Jan-18 03:00 067 1 gusting 6 15.0
2017-Jan-18 02:55 086 4 gusting 6 15.6
2017-Jan-18 02:45 077 3 gusting 6 15.6
2017-Jan-18 02:40 075 5 gusting 8 15.6
2017-Jan-18 02:35 083 2 gusting 6 15.6
2017-Jan-18 02:20 082 0 gusting 6 15.0
2017-Jan-18 02:15 050 1 gusting 6 15.6
2017-Jan-18 02:10 075 1 gusting 4 15.0
2017-Jan-18 02:05 086 0 gusting 4 15.0
2017-Jan-18 02:00 069 1 gusting 6 15.0
2017-Jan-18 01:55 069 0 gusting 4 15.0
2017-Jan-18 01:50 078 1 gusting 2 15.6
2017-Jan-18 01:45 081 1 gusting 5 15.6
2017-Jan-18 01:40 082 1 gusting 4 15.6
2017-Jan-18 01:35 078 15.0
2017-Jan-18 01:30 078 15.6
2017-Jan-18 01:25 078 15.6
2017-Jan-18 01:20 074 1 gusting 4 15.6
2017-Jan-18 01:15 090 15.6
2017-Jan-18 01:10 090 15.6
2017-Jan-18 01:05 103 15.6
2017-Jan-18 01:00 086 15.6
2017-Jan-18 00:55 081 1 gusting 4 15.6
2017-Jan-18 00:50 077 0 gusting 4 15.6
2017-Jan-18 00:45 076 1 gusting 2 15.6
2017-Jan-18 00:40 078 0 gusting 2 16.1
2017-Jan-18 00:35 067 1 gusting 4 16.1
2017-Jan-18 00:30 074 1 gusting 4 16.1
2017-Jan-18 00:25 072 2 gusting 6 16.1
2017-Jan-18 00:20 074 2 gusting 6 16.1
2017-Jan-18 00:15 081 3 gusting 6 16.1
2017-Jan-18 00:10 027 6 gusting 7 16.1
2017-Jan-18 00:05 071 3 gusting 8 16.1
2017-Jan-18 00:00 073 3 gusting 8 16.1
2017-Jan-17 23:55 084 4 gusting 8 16.1
2017-Jan-17 23:50 075 4 gusting 6 16.1
2017-Jan-17 23:45 071 5 gusting 8 16.7
2017-Jan-17 23:40 079 5 gusting 8 16.7
2017-Jan-17 23:35 076 4 gusting 10 16.7
2017-Jan-17 23:30 079 5 gusting 8 16.7
2017-Jan-17 23:25 075 6 gusting 10 16.7
2017-Jan-17 23:20 083 6 gusting 10 16.7
2017-Jan-17 23:15 076 5 gusting 7 16.7
2017-Jan-17 23:10 084 5 gusting 8 16.7
2017-Jan-17 23:05 079 6 gusting 11 16.7
2017-Jan-17 22:55 072 6 gusting 10 16.7
2017-Jan-17 22:50 068 6 gusting 11 16.7
2017-Jan-17 22:45 075 6 gusting 14 16.7
2017-Jan-17 22:40 084 7 gusting 10 16.7
2017-Jan-17 22:35 068 6 gusting 10 16.7
2017-Jan-17 22:30 076 6 gusting 11 16.7
2017-Jan-17 22:25 077 6 gusting 10 16.7
2017-Jan-17 22:20 073 6 gusting 11 16.7
2017-Jan-17 22:15 067 6 gusting 12 16.7
2017-Jan-17 22:10 078 6 gusting 8 16.7
2017-Jan-17 22:05 080 5 gusting 10 16.7
2017-Jan-17 22:00 069 4 gusting 8 16.7
2017-Jan-17 21:55 075 3 gusting 6 16.7
2017-Jan-17 21:50 078 2 gusting 6 16.7
2017-Jan-17 21:45 073 2 gusting 5 16.7
2017-Jan-17 21:40 078 2 gusting 5 16.7
2017-Jan-17 21:35 077 1 gusting 6 16.7
2017-Jan-17 21:30 073 1 gusting 6 16.7
2017-Jan-17 21:25 077 1 gusting 4 16.7
2017-Jan-17 21:20 060 1 gusting 6 16.7
2017-Jan-17 21:15 076 2 gusting 6 16.7
2017-Jan-17 21:10 074 4 gusting 8 16.7
2017-Jan-17 21:05 083 4 gusting 8 16.7
2017-Jan-17 21:00 075 5 gusting 8 16.7
2017-Jan-17 20:55 085 4 gusting 8 16.7
2017-Jan-17 20:50 079 5 gusting 10 16.7
2017-Jan-17 20:45 080 6 gusting 11 16.7
2017-Jan-17 20:40 078 6 gusting 12 16.7
2017-Jan-17 20:35 079 6 gusting 13 16.7
2017-Jan-17 20:30 080 4 gusting 10 16.7
2017-Jan-17 20:25 073 4 gusting 7 16.7
2017-Jan-17 20:20 081 4 gusting 8 16.7
2017-Jan-17 20:15 074 3 gusting 6 16.7
2017-Jan-17 20:10 070 1 gusting 6 16.7
2017-Jan-17 20:05 086 0 gusting 5 16.7
2017-Jan-17 20:00 075 1 gusting 6 16.7
2017-Jan-17 19:55 101 1 gusting 4 16.7
2017-Jan-17 19:50 124 0 gusting 2 16.7
2017-Jan-17 19:45 124 1 gusting 2 16.7
2017-Jan-17 19:40 091 1 gusting 2 16.7
2017-Jan-17 19:35 107 1 gusting 7 16.7
2017-Jan-17 19:30 083 0 gusting 6 16.7
2017-Jan-17 19:25 112 0 gusting 4 17.2
2017-Jan-17 19:20 071 1 gusting 4 17.2
2017-Jan-17 19:15 075 1 gusting 6 17.2
2017-Jan-17 19:10 085 2 gusting 6 17.2
2017-Jan-17 19:05 096 0 gusting 6 17.2
2017-Jan-17 19:00 109 2 gusting 6 17.2
2017-Jan-17 18:55 092 4 gusting 6 17.2
2017-Jan-17 18:50 085 4 gusting 8 17.8
2017-Jan-17 18:40 080 3 gusting 7 17.8
2017-Jan-17 18:35 099 4 gusting 6 17.8
2017-Jan-17 18:30 078 1 gusting 7 17.8
2017-Jan-17 18:25 119 2 gusting 7 17.8
2017-Jan-17 18:20 097 2 gusting 8 17.8
2017-Jan-17 18:15 095 3 gusting 10 18.3
2017-Jan-17 18:10 069 4 gusting 6 18.3
2017-Jan-17 18:05 117 1 gusting 7 18.3
2017-Jan-17 18:00 107 3 gusting 8 17.8
2017-Jan-17 17:50 135 1 gusting 6 18.3
2017-Jan-17 17:45 124 1 gusting 7 18.3
2017-Jan-17 17:40 102 4 gusting 6 18.3
2017-Jan-17 17:35 107 1 gusting 10 18.3
2017-Jan-17 17:30 137 3 gusting 10 18.3
2017-Jan-17 17:25 125 4 gusting 7 18.9
2017-Jan-17 17:20 084 4 gusting 10 18.9
2017-Jan-17 17:15 094 4 gusting 11 18.9
2017-Jan-17 17:10 111 4 gusting 12 18.9
2017-Jan-17 17:05 111 5 gusting 11 18.9
2017-Jan-17 17:00 112 4 gusting 10 19.4
2017-Jan-17 16:55 124 4 gusting 8 19.4
2017-Jan-17 16:50 117 3 gusting 8 19.4
2017-Jan-17 16:45 111 5 gusting 10 19.4
2017-Jan-17 16:40 092 4 gusting 10 19.4
2017-Jan-17 16:35 083 4 gusting 11 19.4
2017-Jan-17 16:30 091 5 gusting 10 19.4
2017-Jan-17 16:20 120 2 gusting 8 19.4
2017-Jan-17 16:15 128 5 gusting 10 19.4
2017-Jan-17 16:10 133 6 gusting 10 19.4
2017-Jan-17 16:05 120 4 gusting 10 19.4
2017-Jan-17 15:55 115 4 gusting 10 20.0
2017-Jan-17 15:50 162 2 gusting 8 20.0
2017-Jan-17 15:45 107 2 gusting 7 20.0
2017-Jan-17 15:40 110 5 gusting 13 20.0
2017-Jan-17 15:35 116 4 gusting 10 20.0
2017-Jan-17 15:30 084 5 gusting 11 20.0
2017-Jan-17 15:20 097 4 gusting 11 20.6
2017-Jan-17 15:10 089 3 gusting 11 20.6
2017-Jan-17 15:00 128 2 gusting 8 20.6
2017-Jan-17 14:55 090 3 gusting 12 20.6
2017-Jan-17 14:50 098 5 gusting 11 20.6
2017-Jan-17 14:45 081 4 gusting 10 21.1
2017-Jan-17 14:40 087 2 gusting 10 21.1
2017-Jan-17 14:35 110 4 gusting 10 21.1
2017-Jan-17 14:30 099 3 gusting 11 21.1
2017-Jan-17 14:25 118 3 gusting 7 21.1
2017-Jan-17 14:20 109 4 gusting 11 20.6
2017-Jan-17 14:15 128 3 gusting 7 21.1
2017-Jan-17 14:10 125 4 gusting 14 20.6
2017-Jan-17 14:05 118 2 gusting 10 20.6
2017-Jan-17 14:00 112 4 gusting 10 21.1
2017-Jan-17 13:55 135 4 gusting 11 20.6
2017-Jan-17 13:50 084 5 gusting 11 21.1
2017-Jan-17 13:45 111 4 gusting 7 21.1
2017-Jan-17 13:40 134 5 gusting 12 21.1
2017-Jan-17 13:35 094 4 gusting 12 21.1
2017-Jan-17 13:30 124 5 gusting 10 21.1
2017-Jan-17 13:25 127 1 gusting 8 21.1
2017-Jan-17 13:20 110 3 gusting 11 21.1
2017-Jan-17 13:15 115 5 gusting 10 21.1
2017-Jan-17 13:10 121 4 gusting 8 21.1
2017-Jan-17 13:05 125 3 gusting 10 21.1
2017-Jan-17 13:00 095 5 gusting 10 21.1
2017-Jan-17 12:55 114 3 gusting 10 21.1
2017-Jan-17 12:45 130 4 gusting 7 21.1
2017-Jan-17 12:40 121 4 gusting 8 21.1
2017-Jan-17 12:35 113 5 gusting 8 21.1
2017-Jan-17 12:30 104 3 gusting 7 21.1
2017-Jan-17 12:25 118 4 gusting 10 21.1
2017-Jan-17 12:20 100 4 gusting 11 21.1
2017-Jan-17 12:15 079 4 gusting 10 21.1
2017-Jan-17 12:10 121 4 gusting 10 21.1
2017-Jan-17 12:05 118 5 gusting 13 21.1
2017-Jan-17 12:00 118 4 gusting 11 21.1
2017-Jan-17 11:55 116 5 gusting 11 21.1
2017-Jan-17 11:50 082 3 gusting 10 20.6
2017-Jan-17 11:45 119 5 gusting 11 20.6
2017-Jan-17 11:40 092 6 gusting 14 20.6
2017-Jan-17 11:35 101 6 gusting 12 20.6
2017-Jan-17 11:30 115 4 gusting 8 20.6
2017-Jan-17 11:25 135 2 gusting 8 20.6
2017-Jan-17 11:20 084 4 gusting 11 20.6
2017-Jan-17 11:15 089 6 gusting 11 20.0
2017-Jan-17 11:05 095 5 gusting 11 20.0
2017-Jan-17 11:00 085 5 gusting 10 20.0
2017-Jan-17 10:55 109 3 gusting 12 20.0
2017-Jan-17 10:50 104 4 gusting 12 20.0
2017-Jan-17 10:45 086 5 gusting 11 20.0
2017-Jan-17 10:40 082 6 gusting 11 20.0
2017-Jan-17 10:35 093 4 gusting 10 20.0
2017-Jan-17 10:30 073 6 gusting 11 20.0
2017-Jan-17 10:25 084 4 gusting 11 20.0
2017-Jan-17 10:20 078 4 gusting 7 19.4
2017-Jan-17 10:15 091 4 gusting 10 19.4
2017-Jan-17 10:10 073 4 gusting 12 19.4
2017-Jan-17 10:05 090 6 gusting 11 18.9
2017-Jan-17 10:00 075 5 gusting 12 19.4
2017-Jan-17 09:55 094 4 gusting 7 18.9
2017-Jan-17 09:50 096 4 gusting 7 18.9
2017-Jan-17 09:45 051 2 gusting 10 18.9
2017-Jan-17 09:30 081 5 gusting 10 18.3
2017-Jan-17 09:25 086 5 gusting 10 18.3
2017-Jan-17 09:20 070 5 gusting 7 18.3
2017-Jan-17 09:15 074 4 gusting 8 18.3
2017-Jan-17 09:05 086 2 gusting 8 18.3
2017-Jan-17 09:00 082 4 gusting 6 17.8
2017-Jan-17 08:55 086 3 gusting 7 17.8
2017-Jan-17 08:50 065 3 gusting 10 17.8
2017-Jan-17 08:45 068 3 gusting 6 17.8
2017-Jan-17 08:40 065 6 gusting 10 17.2
2017-Jan-17 08:35 049 2 gusting 6 17.2
2017-Jan-17 08:30 073 3 gusting 11 17.2
2017-Jan-17 08:25 060 4 gusting 7 17.2
2017-Jan-17 08:20 063 4 gusting 7 16.7
2017-Jan-17 08:15 060 2 gusting 6 16.7
2017-Jan-17 08:10 065 3 gusting 7 16.7
2017-Jan-17 08:05 068 4 gusting 7 16.7
2017-Jan-17 08:00 063 4 gusting 7 16.7
2017-Jan-17 07:55 074 3 gusting 7 16.7
2017-Jan-17 07:50 079 5 gusting 10 16.7
2017-Jan-17 07:45 069 6 gusting 12 16.7
2017-Jan-17 07:35 070 6 gusting 8 16.7
2017-Jan-17 07:30 084 6 gusting 10 16.7
2017-Jan-17 07:25 076 4 gusting 7 16.7
2017-Jan-17 07:20 053 6 gusting 10 16.7
2017-Jan-17 07:15 073 4 gusting 10 16.7
2017-Jan-17 07:10 069 6 gusting 12 16.7
2017-Jan-17 07:05 074 6 gusting 12 16.7
2017-Jan-17 07:00 056 5 gusting 11 16.7
2017-Jan-17 06:55 072 6 gusting 10 16.7
2017-Jan-17 06:50 074 7 gusting 12 16.7
2017-Jan-17 06:45 080 6 gusting 12 16.7
2017-Jan-17 06:40 070 6 gusting 10 16.7
2017-Jan-17 06:35 077 7 gusting 12 16.7
2017-Jan-17 06:30 078 6 gusting 11 16.7
2017-Jan-17 06:25 073 6 gusting 12 16.7
2017-Jan-17 06:20 069 6 gusting 11 16.7
2017-Jan-17 06:15 075 6 gusting 10 16.7
2017-Jan-17 06:10 062 5 gusting 12 16.7
2017-Jan-17 06:05 056 6 gusting 12 16.7
2017-Jan-17 06:00 071 4 gusting 11 16.7
2017-Jan-17 05:55 064 6 gusting 12 16.7
2017-Jan-17 05:50 070 7 gusting 11 16.7
2017-Jan-17 05:45 076 7 gusting 13 16.7
2017-Jan-17 05:40 071 5 gusting 12 16.7
2017-Jan-17 05:35 063 6 gusting 13 17.2
2017-Jan-17 05:30 071 8 gusting 13 17.2
2017-Jan-17 05:25 066 6 gusting 12 17.2
2017-Jan-17 05:20 080 7 gusting 13 17.2
2017-Jan-17 05:15 080 6 gusting 13 17.2
2017-Jan-17 05:10 062 5 gusting 13 17.2
2017-Jan-17 05:05 074 6 gusting 13 17.2
2017-Jan-17 05:00 068 3 gusting 10 17.2
2017-Jan-17 04:55 048 5 gusting 12 17.2
2017-Jan-17 04:50 073 6 gusting 12 17.2
2017-Jan-17 04:45 069 6 gusting 13 16.7
2017-Jan-17 04:40 071 5 gusting 7 17.2
2017-Jan-17 04:35 071 6 gusting 12 17.2
2017-Jan-17 04:30 061 6 gusting 12 17.2
2017-Jan-17 04:25 076 4 gusting 8 17.2
2017-Jan-17 04:20 072 6 gusting 10 17.2
2017-Jan-17 04:15 075 5 gusting 10 17.2
2017-Jan-17 04:10 071 5 gusting 12 17.2
2017-Jan-17 04:05 071 6 gusting 10 17.2
2017-Jan-17 03:55 069 6 gusting 12 17.2
2017-Jan-17 03:50 077 6 gusting 11 17.2
2017-Jan-17 03:45 072 6 gusting 12 17.2
2017-Jan-17 03:40 072 6 gusting 11 17.2
2017-Jan-17 03:35 073 7 gusting 12 17.8
2017-Jan-17 03:30 085 6 gusting 13 17.8
2017-Jan-17 03:20 064 10 gusting 15 17.8
2017-Jan-17 03:15 078 7 gusting 12 17.8
2017-Jan-17 03:00 066 7 gusting 13 18.3
2017-Jan-17 02:55 065 6 gusting 13 18.3
2017-Jan-17 02:50 073 8 gusting 17 18.3
2017-Jan-17 02:45 077 7 gusting 14 18.3
2017-Jan-17 02:40 073 6 gusting 13 18.3
2017-Jan-17 02:35 056 7 gusting 12 18.3
2017-Jan-17 02:30 068 6 gusting 12 18.3
2017-Jan-17 02:25 071 6 gusting 12 18.9
2017-Jan-17 02:20 070 4 gusting 14 18.9
2017-Jan-17 02:15 065 7 gusting 13 18.9
2017-Jan-17 02:10 055 8 gusting 13 18.9
2017-Jan-17 02:05 046 7 gusting 17 18.9
2017-Jan-17 02:00 074 8 gusting 13 18.9
2017-Jan-17 01:55 073 7 gusting 12 18.9
2017-Jan-17 01:50 065 8 gusting 13 18.9
2017-Jan-17 01:45 074 8 gusting 13 18.9
2017-Jan-17 01:40 081 7 gusting 13 18.9
2017-Jan-17 01:35 075 7 gusting 13 18.9
2017-Jan-17 01:30 058 7 gusting 13 19.4
2017-Jan-17 01:25 055 7 gusting 13 19.4
2017-Jan-17 01:20 075 8 gusting 15 18.9
2017-Jan-17 01:15 069 7 gusting 13 18.9
2017-Jan-17 01:10 071 10 gusting 15 18.9
2017-Jan-17 01:00 065 6 gusting 11 18.9
2017-Jan-17 00:55 071 5 gusting 10 18.9
2017-Jan-17 00:45 066 2 gusting 8 18.9
2017-Jan-17 00:40 064 5 gusting 8 18.9
2017-Jan-17 00:35 078 6 gusting 11 18.9
2017-Jan-17 00:30 044 5 gusting 11 18.9
2017-Jan-17 00:25 069 2 gusting 10 18.9
2017-Jan-17 00:20 038 6 gusting 12 19.4
2017-Jan-17 00:15 034 7 gusting 13 18.9
2017-Jan-17 00:10 061 6 gusting 10 18.9
2017-Jan-17 00:05 042 6 gusting 10 19.4
2017-Jan-17 00:00 040 6 gusting 17 19.4
2017-Jan-16 23:55 042 4 gusting 13 18.9
2017-Jan-16 23:50 061 4 gusting 10 18.9
2017-Jan-16 23:45 059 5 gusting 10 18.9
2017-Jan-16 23:40 059 4 gusting 8 18.9
2017-Jan-16 23:35 061 2 gusting 6 18.9
2017-Jan-16 23:30 062 5 gusting 7 18.9
2017-Jan-16 23:25 078 3 gusting 10 18.9
2017-Jan-16 23:20 048 1 gusting 6 18.9
2017-Jan-16 23:15 047 3 gusting 10 18.9
2017-Jan-16 23:10 045 2 gusting 7 18.9
2017-Jan-16 23:05 059 1 gusting 5 18.9
2017-Jan-16 23:00 045 3 gusting 6 18.9
2017-Jan-16 22:55 042 2 gusting 5 18.9
2017-Jan-16 22:50 056 1 gusting 2 18.9
2017-Jan-16 22:45 057 2 gusting 8 18.9
2017-Jan-16 22:40 050 3 gusting 6 18.9
2017-Jan-16 22:35 044 2 gusting 6 18.9
2017-Jan-16 22:30 065 4 gusting 7 18.9
2017-Jan-16 22:25 073 3 gusting 7 18.9
2017-Jan-16 22:20 080 4 gusting 7 18.9
2017-Jan-16 22:15 073 4 gusting 7 18.9
2017-Jan-16 22:10 056 2 gusting 6 18.9
2017-Jan-16 22:05 039 4 gusting 7 18.9
2017-Jan-16 22:00 040 2 gusting 8 18.9
2017-Jan-16 21:55 056 3 gusting 8 18.9
2017-Jan-16 21:45 053 5 gusting 8 18.9
2017-Jan-16 21:40 039 1 gusting 6 18.3
2017-Jan-16 21:35 057 4 gusting 10 18.3
2017-Jan-16 21:30 070 2 gusting 6 18.3
2017-Jan-16 21:25 056 4 gusting 6 18.9
2017-Jan-16 21:20 048 5 gusting 7 18.3
2017-Jan-16 21:15 045 4 gusting 7 18.3
2017-Jan-16 21:10 067 2 gusting 6 18.3
2017-Jan-16 21:05 053 1 gusting 6 18.3
2017-Jan-16 21:00 067 3 gusting 6 18.3
2017-Jan-16 20:55 068 2 gusting 6 18.3
2017-Jan-16 20:50 067 1 gusting 6 18.3
2017-Jan-16 20:45 045 4 gusting 6 17.8
2017-Jan-16 20:35 086 1 gusting 4 16.7
2017-Jan-16 20:30 085 16.7
2017-Jan-16 20:25 054 16.7
2017-Jan-16 20:20 078 16.7
2017-Jan-16 20:15 078 16.7
2017-Jan-16 20:10 107 16.7
2017-Jan-16 20:05 109 17.2
2017-Jan-16 20:00 109 17.2